Airport ICAO


17:40 UTC

10°C

Few clouds


An affordable passengers' Moving Map for your aircraft. Made for the iPad and the iPhone
More information here

LFMC Le Cannet


Le Luc FRANCE   VFR


METAR LFMC 171700Z 31020G31KT 9999 FEW043 10/M06 Q1015 0h40min





NOTAMS

OPEN